createdAt,value
2019-05-07T00:00:22.690Z,0.00
2019-05-07T00:01:23.231Z,0.00
2019-05-07T00:02:22.927Z,0.00
2019-05-07T00:03:22.143Z,0.00
2019-05-07T00:04:23.307Z,0.00
2019-05-07T00:05:22.925Z,0.00
2019-05-07T00:06:23.598Z,0.00
2019-05-07T00:07:22.762Z,0.00
2019-05-07T00:08:23.067Z,0.00
2019-05-07T00:09:24.153Z,0.00
2019-05-07T00:10:24.914Z,0.00
2019-05-07T00:11:24.447Z,0.00
2019-05-07T00:12:23.563Z,0.00
2019-05-07T00:13:23.707Z,0.00
2019-05-07T00:14:23.897Z,0.00
2019-05-07T00:15:24.086Z,0.00
2019-05-07T00:16:24.267Z,0.00
2019-05-07T00:17:24.445Z,0.00
2019-05-07T00:18:24.635Z,0.00
2019-05-07T00:19:24.809Z,0.00
2019-05-07T00:20:25.051Z,0.00
2019-05-07T00:21:25.231Z,0.00
2019-05-07T00:22:25.422Z,0.00
2019-05-07T00:23:25.606Z,0.00
2019-05-07T00:24:26.287Z,0.00
2019-05-07T00:25:26.291Z,0.00
2019-05-07T00:26:26.780Z,0.00
2019-05-07T00:27:26.287Z,0.00
2019-05-07T00:28:26.440Z,0.00
2019-05-07T00:29:26.605Z,0.00
2019-05-07T00:30:26.789Z,0.00
2019-05-07T00:31:26.986Z,0.00
2019-05-07T00:32:27.146Z,0.00
2019-05-07T00:33:27.308Z,0.00
2019-05-07T00:34:27.468Z,0.00
2019-05-07T00:35:27.668Z,0.00
2019-05-07T00:36:27.863Z,0.00
2019-05-07T00:37:28.050Z,0.00
2019-05-07T00:38:28.225Z,0.00
2019-05-07T00:39:28.425Z,0.00
2019-05-07T00:40:28.642Z,0.00
2019-05-07T00:41:28.839Z,0.00
2019-05-07T00:42:29.785Z,0.00
2019-05-07T00:43:29.198Z,0.00
2019-05-07T00:44:29.379Z,0.00
2019-05-07T00:45:29.577Z,0.00
2019-05-07T00:46:32.004Z,0.00
2019-05-07T00:47:29.920Z,0.00
2019-05-07T00:48:30.068Z,0.00
2019-05-07T00:49:30.221Z,0.00
2019-05-07T00:50:30.394Z,0.00
2019-05-07T00:51:30.557Z,0.00
2019-05-07T00:52:30.746Z,0.00
2019-05-07T00:53:32.889Z,0.00
2019-05-07T00:54:32.509Z,0.00
2019-05-07T00:55:32.594Z,0.00
2019-05-07T00:56:33.193Z,0.00
2019-05-07T00:57:32.652Z,0.00
2019-05-07T00:58:32.159Z,0.00
2019-05-07T00:59:32.950Z,0.00
2019-05-07T01:00:33.250Z,0.00
2019-05-07T01:01:34.282Z,0.00
2019-05-07T01:02:32.556Z,0.00
2019-05-07T01:03:32.910Z,0.00
2019-05-07T01:04:33.967Z,0.00
2019-05-07T01:05:33.217Z,0.00
2019-05-07T01:06:33.423Z,0.00
2019-05-07T01:07:33.583Z,0.00
2019-05-07T01:08:33.744Z,0.00
2019-05-07T01:09:33.918Z,0.00
2019-05-07T01:10:34.087Z,0.00
2019-05-07T01:11:34.279Z,0.00
2019-05-07T01:12:34.451Z,0.00
2019-05-07T01:13:34.643Z,0.00
2019-05-07T01:14:34.828Z,0.00
2019-05-07T01:15:35.786Z,0.00
2019-05-07T01:16:35.212Z,0.00
2019-05-07T01:17:35.430Z,0.00
2019-05-07T01:18:35.607Z,0.00
2019-05-07T01:19:36.298Z,0.00
2019-05-07T01:20:35.937Z,0.00
2019-05-07T01:21:36.133Z,0.00
2019-05-07T01:22:36.793Z,0.00
2019-05-07T01:23:36.459Z,0.00
2019-05-07T01:24:36.610Z,0.00
2019-05-07T01:25:36.778Z,0.00
2019-05-07T01:26:36.952Z,0.00
2019-05-07T01:27:37.152Z,0.00
2019-05-07T01:28:37.332Z,0.00
2019-05-07T01:29:37.527Z,0.00
2019-05-07T01:30:37.734Z,0.00
2019-05-07T01:31:37.937Z,0.00
2019-05-07T01:32:39.133Z,0.00
2019-05-07T01:33:38.282Z,0.00
2019-05-07T01:34:38.458Z,0.00
2019-05-07T01:35:38.623Z,0.00
2019-05-07T01:36:38.785Z,0.00
2019-05-07T01:37:38.976Z,0.00
2019-05-07T01:38:39.789Z,0.00
2019-05-07T01:39:42.057Z,0.00
2019-05-07T01:40:39.437Z,0.00
2019-05-07T01:41:41.832Z,0.00
2019-05-07T01:42:42.173Z,0.00
2019-05-07T01:43:40.301Z,0.00
2019-05-07T01:44:42.008Z,0.00
2019-05-07T01:45:46.512Z,0.00
2019-05-07T01:46:42.410Z,0.00
2019-05-07T01:47:42.457Z,0.00
2019-05-07T01:48:42.921Z,0.00
2019-05-07T01:49:42.308Z,0.00
2019-05-07T01:50:42.949Z,0.00
2019-05-07T01:51:42.432Z,0.00
2019-05-07T01:52:42.772Z,0.00
2019-05-07T01:53:43.131Z,0.00
2019-05-07T01:54:42.963Z,0.00
2019-05-07T01:55:42.791Z,0.00
2019-05-07T01:56:43.795Z,0.00
2019-05-07T01:57:42.422Z,0.00
2019-05-07T01:58:43.295Z,0.00
2019-05-07T01:59:42.902Z,0.00
2019-05-07T02:00:42.988Z,0.00
2019-05-07T02:01:43.163Z,0.00
2019-05-07T02:02:43.315Z,0.00
2019-05-07T02:03:43.474Z,0.00
2019-05-07T02:04:43.656Z,0.00
2019-05-07T02:05:44.315Z,0.00
2019-05-07T02:06:43.965Z,0.00
2019-05-07T02:07:44.123Z,0.00
2019-05-07T02:08:44.293Z,0.00
2019-05-07T02:09:44.470Z,0.00
2019-05-07T02:10:45.289Z,0.00
2019-05-07T02:11:44.801Z,0.00
2019-05-07T02:12:44.925Z,0.00
2019-05-07T02:13:45.061Z,0.00
2019-05-07T02:14:45.248Z,0.00
2019-05-07T02:15:57.284Z,0.00
2019-05-07T02:16:47.627Z,0.00
2019-05-07T02:17:45.833Z,0.00
2019-05-07T02:18:46.021Z,0.00
2019-05-07T02:19:46.159Z,0.00
2019-05-07T02:20:46.339Z,0.00
2019-05-07T02:21:46.487Z,0.00
2019-05-07T02:22:46.659Z,0.00
2019-05-07T02:23:46.779Z,0.00
2019-05-07T02:24:46.925Z,0.00
2019-05-07T02:25:47.070Z,0.00
2019-05-07T02:26:47.223Z,0.00
2019-05-07T02:27:47.371Z,0.00
2019-05-07T02:28:48.288Z,0.00
2019-05-07T02:29:47.666Z,0.00
2019-05-07T02:30:48.310Z,0.00
2019-05-07T02:31:47.959Z,0.00
2019-05-07T02:32:48.156Z,0.00
2019-05-07T02:33:48.319Z,0.00
2019-05-07T02:34:49.298Z,0.00
2019-05-07T02:35:49.672Z,0.00
2019-05-07T02:36:48.838Z,0.00
2019-05-07T02:37:53.501Z,0.00
2019-05-07T02:38:53.128Z,0.00
2019-05-07T02:39:53.098Z,0.00
2019-05-07T02:40:49.701Z,0.00
2019-05-07T02:41:49.854Z,0.00
2019-05-07T02:42:53.574Z,0.00
2019-05-07T02:43:50.149Z,0.00
2019-05-07T02:44:52.987Z,0.00
2019-05-07T02:45:53.549Z,0.00
2019-05-07T02:46:52.798Z,0.00
2019-05-07T02:47:52.542Z,0.00
2019-05-07T02:48:53.599Z,0.00
2019-05-07T02:49:53.604Z,0.00
2019-05-07T02:50:53.817Z,0.00
2019-05-07T02:51:53.152Z,0.00
2019-05-07T02:52:53.747Z,0.00
2019-05-07T02:53:53.685Z,0.00
2019-05-07T02:54:54.083Z,0.00
2019-05-07T02:55:54.293Z,0.00
2019-05-07T02:56:53.385Z,0.00
2019-05-07T02:57:54.270Z,0.00
2019-05-07T02:58:53.904Z,0.00
2019-05-07T02:59:54.331Z,0.00
2019-05-07T03:00:54.156Z,0.00
2019-05-07T03:01:53.871Z,0.00
2019-05-07T03:02:54.528Z,0.00
2019-05-07T03:03:53.655Z,0.00
2019-05-07T03:04:53.858Z,0.00
2019-05-07T03:05:54.010Z,0.00
2019-05-07T03:06:54.575Z,0.00
2019-05-07T03:07:55.419Z,4.00
2019-05-07T03:08:54.700Z,4.00
2019-05-07T03:09:54.888Z,4.00
2019-05-07T03:10:55.035Z,4.00
2019-05-07T03:11:55.211Z,4.00
2019-05-07T03:12:55.367Z,4.00
2019-05-07T03:13:55.543Z,4.00
2019-05-07T03:14:55.736Z,4.00
2019-05-07T03:15:55.897Z,0.00
2019-05-07T03:17:28.463Z,0.00
2019-05-07T03:17:56.235Z,0.00
2019-05-07T03:18:56.396Z,4.00
2019-05-07T03:19:56.586Z,4.00
2019-05-07T03:20:56.724Z,4.00
2019-05-07T03:21:56.857Z,0.00
2019-05-07T03:22:57.020Z,4.00
2019-05-07T03:23:57.146Z,4.00
2019-05-07T03:24:57.280Z,4.00
2019-05-07T03:25:57.437Z,4.00
2019-05-07T03:26:57.568Z,4.00
2019-05-07T03:27:57.698Z,8.00
2019-05-07T03:28:57.830Z,8.00
2019-05-07T03:29:57.988Z,8.00
2019-05-07T03:30:58.236Z,8.00
2019-05-07T03:31:58.288Z,12.00
2019-05-07T03:32:58.442Z,8.00
2019-05-07T03:33:58.584Z,12.00
2019-05-07T03:34:58.752Z,12.00
2019-05-07T03:35:58.945Z,16.00
2019-05-07T03:36:59.137Z,16.00
2019-05-07T03:37:59.303Z,20.00
2019-05-07T03:38:59.482Z,20.00
2019-05-07T03:39:59.653Z,24.00
2019-05-07T03:40:59.822Z,24.00
2019-05-07T03:42:03.152Z,28.00
2019-05-07T03:43:04.863Z,32.00
2019-05-07T03:44:03.715Z,40.00
2019-05-07T03:45:03.717Z,40.00
2019-05-07T03:46:03.612Z,48.00
2019-05-07T03:47:06.141Z,56.00
2019-05-07T03:48:03.706Z,60.00
2019-05-07T03:49:04.027Z,64.00
2019-05-07T03:50:03.454Z,76.00
2019-05-07T03:51:03.822Z,84.00
2019-05-07T03:52:04.400Z,92.00
2019-05-07T03:53:03.146Z,100.00
2019-05-07T03:54:03.122Z,108.00
2019-05-07T03:55:03.974Z,120.00
2019-05-07T03:56:04.607Z,128.00
2019-05-07T03:57:10.781Z,140.00
2019-05-07T03:58:04.983Z,152.00
2019-05-07T03:59:03.567Z,160.00
2019-05-07T04:00:04.520Z,176.00
2019-05-07T04:01:04.753Z,188.00
2019-05-07T04:02:03.578Z,204.00
2019-05-07T04:03:03.890Z,220.00
2019-05-07T04:04:03.952Z,236.00
2019-05-07T04:05:04.538Z,252.00
2019-05-07T04:06:05.284Z,272.00
2019-05-07T04:07:04.404Z,292.00
2019-05-07T04:08:04.546Z,308.00
2019-05-07T04:09:04.730Z,332.00
2019-05-07T04:10:04.935Z,348.00
2019-05-07T04:11:05.137Z,368.00
2019-05-07T04:12:05.307Z,388.00
2019-05-07T04:13:05.477Z,404.00
2019-05-07T04:14:05.639Z,420.00
2019-05-07T04:15:06.853Z,432.00
2019-05-07T04:16:05.996Z,444.00
2019-05-07T04:17:21.863Z,460.00
2019-05-07T04:18:08.309Z,476.00
2019-05-07T04:19:06.575Z,496.00
2019-05-07T04:20:06.718Z,512.00
2019-05-07T04:21:06.883Z,528.00
2019-05-07T04:22:07.051Z,544.00
2019-05-07T04:23:07.229Z,560.00
2019-05-07T04:24:07.841Z,564.00
2019-05-07T04:25:07.634Z,572.00
2019-05-07T04:26:07.794Z,580.00
2019-05-07T04:27:07.970Z,596.00
2019-05-07T04:28:08.116Z,612.00
2019-05-07T04:29:08.336Z,632.00
2019-05-07T04:30:08.534Z,644.00
2019-05-07T04:31:08.722Z,660.00
2019-05-07T04:32:08.866Z,684.00
2019-05-07T04:33:09.054Z,700.00
2019-05-07T04:34:09.190Z,712.00
2019-05-07T04:35:09.339Z,736.00
2019-05-07T04:36:09.523Z,752.00
2019-05-07T04:37:13.007Z,780.00
2019-05-07T04:38:09.819Z,812.00
2019-05-07T04:39:09.972Z,860.00
2019-05-07T04:40:13.416Z,916.00
2019-05-07T04:41:10.383Z,976.00
2019-05-07T04:42:13.261Z,1028.00
2019-05-07T04:43:13.210Z,1056.00
2019-05-07T04:44:13.798Z,1064.00
2019-05-07T04:45:13.669Z,1076.00
2019-05-07T04:46:14.409Z,1084.00
2019-05-07T04:47:13.351Z,1112.00
2019-05-07T04:48:14.311Z,1136.00
2019-05-07T04:49:13.145Z,1140.00
2019-05-07T04:50:13.988Z,1124.00
2019-05-07T04:51:13.275Z,1100.00
2019-05-07T04:52:15.375Z,1060.00
2019-05-07T04:53:14.004Z,1024.00
2019-05-07T04:54:13.958Z,1020.00
2019-05-07T04:55:14.011Z,1028.00
2019-05-07T04:56:14.842Z,1044.00
2019-05-07T04:57:13.561Z,1076.00
2019-05-07T04:58:14.697Z,1088.00
2019-05-07T04:59:13.899Z,1096.00
2019-05-07T05:00:14.148Z,1120.00
2019-05-07T05:01:14.274Z,1148.00
2019-05-07T05:02:14.434Z,1164.00
2019-05-07T05:03:14.559Z,1168.00
2019-05-07T05:04:25.490Z,1140.00
2019-05-07T05:05:16.831Z,1112.00
2019-05-07T05:06:14.947Z,1100.00
2019-05-07T05:07:15.106Z,1088.00
2019-05-07T05:08:15.844Z,1096.00
2019-05-07T05:09:15.489Z,1152.00
2019-05-07T05:10:15.660Z,1224.00
2019-05-07T05:11:15.819Z,1296.00
2019-05-07T05:12:15.993Z,1376.00
2019-05-07T05:13:16.147Z,1456.00
2019-05-07T05:14:16.291Z,1524.00
2019-05-07T05:15:17.349Z,1592.00
2019-05-07T05:16:16.579Z,1648.00
2019-05-07T05:17:16.738Z,1688.00
2019-05-07T05:18:16.887Z,1728.00
2019-05-07T05:19:17.056Z,1772.00
2019-05-07T05:20:17.194Z,1804.00
2019-05-07T05:21:17.326Z,1836.00
2019-05-07T05:22:17.479Z,1864.00
2019-05-07T05:23:17.652Z,1880.00
2019-05-07T05:24:17.787Z,1884.00
2019-05-07T05:25:17.921Z,1844.00
2019-05-07T05:26:18.092Z,1848.00
2019-05-07T05:27:18.241Z,1936.00
2019-05-07T05:28:18.402Z,1984.00
2019-05-07T05:29:18.577Z,2008.00
2019-05-07T05:30:18.853Z,2048.00
2019-05-07T05:31:18.857Z,2112.00
2019-05-07T05:32:18.997Z,2136.00
2019-05-07T05:33:19.138Z,2124.00
2019-05-07T05:34:19.294Z,2068.00
2019-05-07T05:35:19.466Z,2060.00
2019-05-07T05:36:21.543Z,2024.00
2019-05-07T05:37:22.607Z,1980.00
2019-05-07T05:38:22.148Z,1948.00
2019-05-07T05:39:22.509Z,1916.00
2019-05-07T05:40:22.704Z,1888.00
2019-05-07T05:41:22.489Z,1892.00
2019-05-07T05:42:22.470Z,1908.00
2019-05-07T05:43:22.370Z,1932.00
2019-05-07T05:44:22.755Z,1988.00
2019-05-07T05:45:21.734Z,2060.00
2019-05-07T05:46:22.750Z,2120.00
2019-05-07T05:47:22.583Z,2180.00
2019-05-07T05:48:22.543Z,2256.00
2019-05-07T05:49:23.070Z,2356.00
2019-05-07T05:50:23.850Z,2488.00
2019-05-07T05:51:22.809Z,2624.00
2019-05-07T05:52:23.851Z,2752.00
2019-05-07T05:53:23.342Z,2872.00
2019-05-07T05:54:22.686Z,2988.00
2019-05-07T05:55:22.839Z,3080.00
2019-05-07T05:56:22.993Z,3164.00
2019-05-07T05:57:23.225Z,3224.00
2019-05-07T05:58:24.131Z,3268.00
2019-05-07T05:59:29.542Z,3308.00
2019-05-07T06:00:25.622Z,3352.00
2019-05-07T06:01:42.815Z,3412.00
2019-05-07T06:02:23.945Z,3480.00
2019-05-07T06:03:24.077Z,3552.00
2019-05-07T06:04:24.230Z,3616.00
2019-05-07T06:05:24.366Z,3656.00
2019-05-07T06:06:24.509Z,3712.00
2019-05-07T06:07:24.635Z,3744.00
2019-05-07T06:08:24.868Z,3780.00
2019-05-07T06:09:25.083Z,3848.00
2019-05-07T06:10:25.213Z,3908.00
2019-05-07T06:11:25.391Z,3964.00
2019-05-07T06:12:25.500Z,4028.00
2019-05-07T06:13:25.632Z,4088.00
2019-05-07T06:14:25.761Z,4136.00
2019-05-07T06:15:26.879Z,4192.00
2019-05-07T06:16:26.125Z,4252.00
2019-05-07T06:17:26.261Z,4316.00
2019-05-07T06:18:26.390Z,4380.00
2019-05-07T06:19:26.545Z,4428.00
2019-05-07T06:20:26.702Z,4468.00
2019-05-07T06:21:26.874Z,4512.00
2019-05-07T06:22:27.003Z,4532.00
2019-05-07T06:23:27.173Z,4572.00
2019-05-07T06:24:27.341Z,4612.00
2019-05-07T06:25:27.492Z,4636.00
2019-05-07T06:26:27.858Z,4668.00
2019-05-07T06:27:27.769Z,4700.00
2019-05-07T06:28:27.913Z,4728.00
2019-05-07T06:29:28.049Z,4756.00
2019-05-07T06:30:28.172Z,4780.00
2019-05-07T06:31:28.323Z,4820.00
2019-05-07T06:32:29.447Z,4856.00
2019-05-07T06:33:28.660Z,4924.00
2019-05-07T06:34:28.815Z,5000.00
2019-05-07T06:35:28.968Z,5108.00
2019-05-07T06:36:29.093Z,5216.00
2019-05-07T06:37:29.219Z,5384.00
2019-05-07T06:38:32.054Z,5196.00
2019-05-07T06:39:32.685Z,5140.00
2019-05-07T06:40:32.123Z,5132.00
2019-05-07T06:41:32.173Z,5132.00
2019-05-07T06:42:33.112Z,5156.00
2019-05-07T06:43:32.385Z,5296.00
2019-05-07T06:44:32.014Z,5468.00
2019-05-07T06:45:34.742Z,5248.00
2019-05-07T06:46:32.309Z,5252.00
2019-05-07T06:47:32.068Z,5348.00
2019-05-07T06:48:41.342Z,5264.00
2019-05-07T06:49:33.331Z,5424.00
2019-05-07T06:50:32.810Z,5548.00
2019-05-07T06:51:32.976Z,5620.00
2019-05-07T06:52:32.883Z,5944.00
2019-05-07T06:53:33.406Z,5428.00
2019-05-07T06:54:33.244Z,5820.00
2019-05-07T06:55:32.572Z,5948.00
2019-05-07T06:56:33.540Z,5912.00
2019-05-07T06:57:33.039Z,5800.00
2019-05-07T06:58:34.880Z,5560.00
2019-05-07T06:59:34.769Z,5668.00
2019-05-07T07:00:34.244Z,5768.00
2019-05-07T07:01:33.370Z,5652.00
2019-05-07T07:02:33.533Z,5624.00
2019-05-07T07:03:34.353Z,5584.00
2019-05-07T07:04:33.915Z,5556.00
2019-05-07T07:05:34.114Z,5508.00
2019-05-07T07:06:34.303Z,5540.00
2019-05-07T07:07:37.425Z,5396.00
2019-05-07T07:08:35.674Z,5368.00
2019-05-07T07:09:34.839Z,5508.00
2019-05-07T07:10:35.023Z,5304.00
2019-05-07T07:11:35.220Z,5680.00
2019-05-07T07:12:36.358Z,5684.00
2019-05-07T07:13:35.631Z,5672.00
2019-05-07T07:14:35.832Z,5832.00
2019-05-07T07:15:36.026Z,5800.00
2019-05-07T07:16:36.197Z,5892.00
2019-05-07T07:17:36.368Z,6080.00
2019-05-07T07:18:48.579Z,6272.00
2019-05-07T07:19:38.683Z,6336.00
2019-05-07T07:20:36.794Z,6204.00
2019-05-07T07:21:37.861Z,6184.00
2019-05-07T07:22:37.134Z,5896.00
2019-05-07T07:23:37.327Z,6468.00
2019-05-07T07:24:37.543Z,6544.00
2019-05-07T07:25:37.725Z,6688.00
2019-05-07T07:26:37.917Z,6856.00
2019-05-07T07:27:38.092Z,7088.00
2019-05-07T07:28:38.293Z,6552.00
2019-05-07T07:29:38.495Z,5868.00
2019-05-07T07:30:38.672Z,6084.00
2019-05-07T07:31:38.837Z,7256.00
2019-05-07T07:32:39.005Z,8172.00
2019-05-07T07:33:39.894Z,6520.00
2019-05-07T07:34:39.320Z,6608.00
2019-05-07T07:35:39.525Z,8092.00
2019-05-07T07:36:42.239Z,7152.00
2019-05-07T07:37:39.839Z,6804.00
2019-05-07T07:38:42.097Z,6808.00
2019-05-07T07:39:43.010Z,6616.00
2019-05-07T07:40:42.183Z,6112.00
2019-05-07T07:41:42.165Z,6016.00
2019-05-07T07:42:42.641Z,5988.00
2019-05-07T07:43:42.033Z,5908.00
2019-05-07T07:44:42.864Z,6240.00
2019-05-07T07:45:42.034Z,7636.00
2019-05-07T07:46:42.598Z,7772.00
2019-05-07T07:47:42.384Z,7780.00
2019-05-07T07:48:43.537Z,7372.00
2019-05-07T07:49:43.875Z,6048.00
2019-05-07T07:50:42.276Z,5744.00
2019-05-07T07:51:45.634Z,5640.00
2019-05-07T07:52:43.625Z,5720.00
2019-05-07T07:53:42.876Z,6772.00
2019-05-07T07:54:43.882Z,6240.00
2019-05-07T07:55:43.140Z,7552.00
2019-05-07T07:56:52.309Z,7636.00
2019-05-07T07:57:45.496Z,7728.00
2019-05-07T07:58:44.369Z,7532.00
2019-05-07T07:59:43.879Z,7996.00
2019-05-07T08:00:44.049Z,8064.00
2019-05-07T08:01:44.242Z,8252.00
2019-05-07T08:02:44.880Z,8260.00
2019-05-07T08:03:44.539Z,8584.00
2019-05-07T08:04:44.710Z,8668.00
2019-05-07T08:05:44.862Z,7716.00
2019-05-07T08:06:45.021Z,7396.00
2019-05-07T08:07:45.207Z,7552.00
2019-05-07T08:08:45.348Z,7748.00
2019-05-07T08:09:46.374Z,7972.00
2019-05-07T08:10:45.615Z,8960.00
2019-05-07T08:11:45.772Z,9680.00
2019-05-07T08:12:45.968Z,9132.00
2019-05-07T08:13:46.112Z,7408.00
2019-05-07T08:14:46.271Z,7992.00
2019-05-07T08:15:46.446Z,7248.00
2019-05-07T08:16:47.380Z,7068.00
2019-05-07T08:17:46.900Z,6712.00
2019-05-07T08:18:46.923Z,6720.00
2019-05-07T08:19:48.060Z,6776.00
2019-05-07T08:20:47.871Z,6824.00
2019-05-07T08:21:48.367Z,6820.00
2019-05-07T08:22:47.653Z,6800.00
2019-05-07T08:23:48.372Z,6792.00
2019-05-07T08:24:48.040Z,7008.00
2019-05-07T08:25:48.195Z,7248.00
2019-05-07T08:26:48.374Z,7172.00
2019-05-07T08:27:48.580Z,8680.00
2019-05-07T08:28:48.741Z,7476.00
2019-05-07T08:29:48.891Z,9016.00
2019-05-07T08:30:49.027Z,9192.00
2019-05-07T08:31:49.209Z,9076.00
2019-05-07T08:32:49.904Z,9408.00
2019-05-07T08:33:51.724Z,9624.00
2019-05-07T08:34:52.039Z,9520.00
2019-05-07T08:35:52.102Z,9180.00
2019-05-07T08:36:50.064Z,9376.00
2019-05-07T08:37:51.824Z,9472.00
2019-05-07T08:38:52.870Z,9516.00
2019-05-07T08:39:52.099Z,7856.00
2019-05-07T08:40:52.163Z,8660.00
2019-05-07T08:41:52.706Z,7532.00
2019-05-07T08:42:52.469Z,9588.00
2019-05-07T08:43:52.290Z,8012.00
2019-05-07T08:44:52.888Z,9824.00
2019-05-07T08:45:52.604Z,10108.00
2019-05-07T08:46:52.893Z,10264.00
2019-05-07T08:47:52.874Z,10292.00
2019-05-07T08:48:52.929Z,10220.00
2019-05-07T08:49:53.373Z,8364.00
2019-05-07T08:50:53.375Z,7752.00
2019-05-07T08:51:52.625Z,7636.00
2019-05-07T08:52:52.797Z,7644.00
2019-05-07T08:53:53.885Z,7680.00
2019-05-07T08:54:53.897Z,7688.00
2019-05-07T08:55:53.399Z,7692.00
2019-05-07T08:56:53.445Z,7704.00
2019-05-07T08:57:53.624Z,7812.00
2019-05-07T08:58:53.816Z,7756.00
2019-05-07T09:00:00.440Z,7640.00
2019-05-07T09:00:56.142Z,7496.00
2019-05-07T09:01:54.240Z,7552.00
2019-05-07T09:02:54.395Z,7612.00
2019-05-07T09:03:54.558Z,7660.00
2019-05-07T09:04:54.716Z,7672.00
2019-05-07T09:05:54.913Z,8620.00
2019-05-07T09:06:55.081Z,7692.00
2019-05-07T09:07:55.271Z,9368.00
2019-05-07T09:08:55.435Z,9444.00
2019-05-07T09:09:56.387Z,9676.00
2019-05-07T09:10:55.919Z,9748.00
2019-05-07T09:11:55.959Z,9804.00
2019-05-07T09:12:56.127Z,9760.00
2019-05-07T09:13:56.263Z,9792.00
2019-05-07T09:14:56.425Z,9740.00
2019-05-07T09:15:56.619Z,9572.00
2019-05-07T09:16:56.763Z,9244.00
2019-05-07T09:17:56.901Z,6916.00
2019-05-07T09:18:57.041Z,6404.00
2019-05-07T09:19:57.182Z,6004.00
2019-05-07T09:20:57.362Z,5652.00
2019-05-07T09:21:57.545Z,5364.00
2019-05-07T09:22:58.381Z,5152.00
2019-05-07T09:23:57.889Z,5012.00
2019-05-07T09:24:58.025Z,4984.00
2019-05-07T09:25:58.177Z,5068.00
2019-05-07T09:26:58.362Z,5184.00
2019-05-07T09:27:59.396Z,5220.00
2019-05-07T09:28:58.628Z,5224.00
2019-05-07T09:29:58.803Z,5268.00
2019-05-07T09:31:01.671Z,5300.00
2019-05-07T09:31:59.396Z,5208.00
2019-05-07T09:33:02.328Z,5164.00
2019-05-07T09:33:59.505Z,5204.00
2019-05-07T09:34:59.635Z,5296.00
2019-05-07T09:36:02.076Z,5356.00
2019-05-07T09:37:02.241Z,5416.00
2019-05-07T09:38:00.253Z,5436.00
2019-05-07T09:39:02.682Z,5408.00
2019-05-07T09:40:02.773Z,5372.00
2019-05-07T09:41:02.772Z,5324.00
2019-05-07T09:42:02.228Z,5332.00
2019-05-07T09:43:02.510Z,5344.00
2019-05-07T09:44:03.159Z,5412.00
2019-05-07T09:45:02.453Z,5500.00
2019-05-07T09:46:02.702Z,5576.00
2019-05-07T09:47:02.948Z,5636.00
2019-05-07T09:48:02.890Z,5712.00
2019-05-07T09:49:03.291Z,5796.00
2019-05-07T09:50:07.565Z,5948.00
2019-05-07T09:51:04.620Z,6048.00
2019-05-07T09:52:05.989Z,6020.00
2019-05-07T09:53:04.106Z,5920.00
2019-05-07T09:54:03.221Z,5796.00
2019-05-07T09:55:13.821Z,5700.00
2019-05-07T09:56:05.595Z,5648.00
2019-05-07T09:57:03.837Z,5576.00
2019-05-07T09:58:04.032Z,5524.00
2019-05-07T09:59:04.405Z,5508.00
2019-05-07T10:00:04.425Z,5504.00
2019-05-07T10:01:04.586Z,5520.00
2019-05-07T10:02:04.737Z,5692.00
2019-05-07T10:03:05.408Z,5964.00
2019-05-07T10:04:05.115Z,6240.00
2019-05-07T10:05:05.270Z,6524.00
2019-05-07T10:06:05.430Z,6660.00
2019-05-07T10:07:05.625Z,6796.00
2019-05-07T10:08:05.795Z,6952.00
2019-05-07T10:09:06.006Z,7120.00
2019-05-07T10:10:06.892Z,7312.00
2019-05-07T10:11:07.405Z,7532.00
2019-05-07T10:12:06.591Z,7848.00
2019-05-07T10:13:06.778Z,8276.00
2019-05-07T10:14:07.036Z,8616.00
2019-05-07T10:15:07.112Z,8732.00
2019-05-07T10:16:07.864Z,8684.00
2019-05-07T10:17:08.462Z,8604.00
2019-05-07T10:18:07.614Z,8548.00
2019-05-07T10:19:07.862Z,8440.00
2019-05-07T10:20:19.397Z,8264.00
2019-05-07T10:21:10.185Z,8096.00
2019-05-07T10:22:08.341Z,7976.00
2019-05-07T10:23:08.550Z,7932.00
2019-05-07T10:24:09.399Z,7924.00
2019-05-07T10:25:08.967Z,7904.00
2019-05-07T10:26:09.170Z,7916.00
2019-05-07T10:27:09.901Z,7932.00
2019-05-07T10:28:09.574Z,8000.00
2019-05-07T10:29:12.463Z,8092.00
2019-05-07T10:30:12.649Z,8028.00
2019-05-07T10:31:10.903Z,7908.00
2019-05-07T10:32:12.627Z,7716.00
2019-05-07T10:33:12.304Z,7532.00
2019-05-07T10:34:12.289Z,7456.00
2019-05-07T10:35:12.770Z,7284.00
2019-05-07T10:36:12.520Z,7100.00
2019-05-07T10:37:11.998Z,6920.00
2019-05-07T10:38:12.561Z,6824.00
2019-05-07T10:39:12.978Z,6796.00
2019-05-07T10:40:12.724Z,6780.00
2019-05-07T10:41:12.190Z,6712.00
2019-05-07T10:42:13.042Z,6572.00
2019-05-07T10:43:12.905Z,6372.00
2019-05-07T10:44:12.294Z,6180.00
2019-05-07T10:45:13.119Z,6052.00
2019-05-07T10:46:13.585Z,5936.00
2019-05-07T10:47:12.946Z,5824.00
2019-05-07T10:48:12.856Z,5720.00
2019-05-07T10:49:13.017Z,5628.00
2019-05-07T10:50:13.422Z,5524.00
2019-05-07T10:51:13.341Z,5384.00
2019-05-07T10:52:13.547Z,5284.00
2019-05-07T10:53:13.711Z,5160.00
2019-05-07T10:54:13.879Z,5076.00
2019-05-07T10:55:14.036Z,5016.00
2019-05-07T10:56:14.234Z,4952.00
2019-05-07T10:57:14.378Z,4860.00
2019-05-07T10:58:14.920Z,4708.00
2019-05-07T10:59:15.405Z,4584.00
2019-05-07T11:00:14.913Z,4452.00
2019-05-07T11:01:15.938Z,4336.00
2019-05-07T11:02:15.178Z,4264.00
2019-05-07T11:03:15.337Z,4292.00
2019-05-07T11:04:15.475Z,4416.00
2019-05-07T11:05:15.664Z,4600.00
2019-05-07T11:06:15.818Z,4816.00
2019-05-07T11:07:16.009Z,5120.00
2019-05-07T11:08:16.912Z,5456.00
2019-05-07T11:09:16.912Z,5804.00
2019-05-07T11:10:16.452Z,6144.00
2019-05-07T11:11:16.603Z,6448.00
2019-05-07T11:12:17.763Z,6760.00
2019-05-07T11:13:16.955Z,7120.00
2019-05-07T11:14:17.103Z,7468.00
2019-05-07T11:15:17.276Z,7792.00
2019-05-07T11:16:17.433Z,8104.00
2019-05-07T11:17:17.616Z,8364.00
2019-05-07T11:18:17.818Z,8644.00
2019-05-07T11:19:19.021Z,8932.00
2019-05-07T11:20:19.158Z,8992.00
2019-05-07T11:21:18.292Z,9076.00
2019-05-07T11:22:18.459Z,9172.00
2019-05-07T11:23:18.680Z,9304.00
2019-05-07T11:24:18.839Z,9432.00
2019-05-07T11:25:19.014Z,9444.00
2019-05-07T11:26:19.193Z,9468.00
2019-05-07T11:27:19.410Z,9488.00
2019-05-07T11:28:19.603Z,9592.00
2019-05-07T11:29:21.993Z,9752.00
2019-05-07T11:30:19.976Z,9920.00
2019-05-07T11:31:22.280Z,10144.00
2019-05-07T11:32:21.646Z,10312.00
2019-05-07T11:33:22.055Z,10444.00
2019-05-07T11:34:22.068Z,10632.00
2019-05-07T11:35:23.008Z,10780.00
2019-05-07T11:36:22.421Z,10904.00
2019-05-07T11:37:22.571Z,11020.00
2019-05-07T11:38:25.002Z,11136.00
2019-05-07T11:39:22.711Z,11296.00
2019-05-07T11:40:23.428Z,11428.00
2019-05-07T11:41:22.914Z,11536.00
2019-05-07T11:42:22.857Z,11584.00
2019-05-07T11:43:22.915Z,11600.00
2019-05-07T11:44:22.981Z,11476.00
2019-05-07T11:45:23.383Z,11432.00
2019-05-07T11:46:22.524Z,11624.00
2019-05-07T11:47:22.723Z,11908.00
2019-05-07T11:48:23.414Z,12188.00
2019-05-07T11:49:23.424Z,12252.00
2019-05-07T11:50:23.194Z,12024.00
2019-05-07T11:51:23.373Z,11780.00
2019-05-07T11:52:23.532Z,11480.00
2019-05-07T11:53:23.673Z,11276.00
2019-05-07T11:54:23.935Z,11120.00
2019-05-07T11:55:23.955Z,11144.00
2019-05-07T11:56:24.149Z,11140.00
2019-05-07T11:57:24.312Z,11108.00
2019-05-07T11:58:24.466Z,11032.00
2019-05-07T11:59:24.927Z,10908.00
2019-05-07T12:00:24.851Z,10784.00
2019-05-07T12:01:25.923Z,10780.00
2019-05-07T12:02:25.918Z,10264.00
2019-05-07T12:03:25.929Z,9836.00
2019-05-07T12:04:27.839Z,9540.00
2019-05-07T12:05:25.593Z,9300.00
2019-05-07T12:06:25.941Z,9212.00
2019-05-07T12:07:25.957Z,8908.00
2019-05-07T12:08:37.400Z,8564.00
2019-05-07T12:09:27.374Z,8188.00
2019-05-07T12:10:26.503Z,7740.00
2019-05-07T12:11:26.672Z,7372.00
2019-05-07T12:12:26.825Z,6980.00
2019-05-07T12:13:26.977Z,6672.00
2019-05-07T12:14:31.583Z,6384.00
2019-05-07T12:15:29.277Z,6080.00
2019-05-07T12:16:27.550Z,5748.00
2019-05-07T12:17:27.691Z,5444.00
2019-05-07T12:18:27.864Z,5180.00
2019-05-07T12:19:28.928Z,4932.00
2019-05-07T12:20:28.939Z,4676.00
2019-05-07T12:21:28.333Z,4428.00
2019-05-07T12:22:28.505Z,4216.00
2019-05-07T12:23:29.440Z,4056.00
2019-05-07T12:24:28.829Z,3968.00
2019-05-07T12:25:28.978Z,3956.00
2019-05-07T12:26:29.438Z,4008.00
2019-05-07T12:27:32.196Z,4032.00
2019-05-07T12:28:29.579Z,4032.00